Tubul — A8VP8 — position and weather

sailwx.info

Track history (hours):
 
Tides and Currents Weather Stations Pressure Air Temp Water Temp Dewpoint Dewpoint Depression Visibility Wind Speed Wind Dir Waves Ship Positions

Tubul

Last reported at 2015-Jan-30 21:31 UTC. Time now 2015-Jan-30 21:40 UTC.
Position N 01°13' E 103°41'.

Length 300 m; draft 12.3 m.

Type: Ship. MMSI: 636014647.

Date/timePositionNaut miles runAvg speedWind from/ knotsBaromVisibWave heightAir tempDewpointWater temp
2015-Jan-30 21:31N 01°13' E 103°41'6 6.6
2015-Jan-30 20:33N 01°16' E 103°47'0 0.0
2015-Jan-30 19:33N 01°16' E 103°47'0 0.0
2015-Jan-30 18:33N 01°16' E 103°47'0 0.0
2015-Jan-30 17:33N 01°16' E 103°47'0 0.0
2015-Jan-30 16:33N 01°16' E 103°47'0 0.0
2015-Jan-30 15:33N 01°16' E 103°47'0 0.0
2015-Jan-30 14:33N 01°16' E 103°47'0 0.0
2015-Jan-30 13:33N 01°16' E 103°47'0 0.0
2015-Jan-30 12:33N 01°16' E 103°47'0 0.0
2015-Jan-30 11:33N 01°16' E 103°47'0 0.0
2015-Jan-30 10:33N 01°16' E 103°47'0 0.0
2015-Jan-30 09:14N 01°16' E 103°47'0 0.4
2015-Jan-30 08:34N 01°16' E 103°47'6 5.6
2015-Jan-30 07:30N 01°13' E 103°52'7 7.2
2015-Jan-30 06:33N 01°15' E 103°58'1313.1
2015-Jan-30 05:33N 01°17' E 104°11'  
2015-Jan-25 11:33N 22°01' E 114°23'1110.2
2015-Jan-25 10:30N 22°08' E 114°13'1110.9
2015-Jan-25 09:31N 22°16' E 114°06'4 3.3
2015-Jan-25 08:23N 22°20' E 114°07'0 0.0
2015-Jan-25 07:23N 22°20' E 114°07'0 0.0
2015-Jan-25 06:32N 22°20' E 114°07'0 0.0
2015-Jan-25 05:32N 22°20' E 114°07'0 0.0
2015-Jan-25 04:23N 22°20' E 114°07'0 0.0
2015-Jan-25 03:29N 22°20' E 114°07'0 0.0
2015-Jan-25 02:32N 22°20' E 114°07'0 0.0
2015-Jan-25 01:32N 22°20' E 114°07'0 0.0
2015-Jan-25 00:29N 22°20' E 114°07'0 0.0
2015-Jan-24 23:32N 22°20' E 114°07'0 0.0
2015-Jan-24 22:26N 22°20' E 114°07'0 0.0
2015-Jan-24 21:32N 22°20' E 114°07'0 0.0
2015-Jan-24 20:32N 22°20' E 114°07'0 0.0
2015-Jan-24 19:29N 22°20' E 114°07'0 0.0
2015-Jan-24 18:33N 22°20' E 114°07'8 7.7
2015-Jan-24 17:33N 22°13' E 114°10'8 6.9
2015-Jan-24 16:26N 22°09' E 114°17'910.5
2015-Jan-24 15:32N 22°15' E 114°25'20 8.5
2015-Jan-24 13:08N 22°34' E 114°17'1 1.5
2015-Jan-24 12:31N 22°34' E 114°16'0 0.0
2015-Jan-24 00:29N 22°34' E 114°16'1 1.0
2015-Jan-23 23:33N 22°34' E 114°17'13110.0
2015-Jan-23 10:29N 22°42' E 116°39'1211.0
2015-Jan-23 09:23N 22°50' E 116°49'7 8.2
2015-Jan-23 08:33N 22°55' E 116°44'15710.1
2015-Jan-22 17:03N 24°22' E 119°07'34410.9
2015-Jan-21 09:26N 29°12' E 122°33'2512.1
2015-Jan-21 07:21N 29°37' E 122°31'1013.0
2015-Jan-21 06:33N 29°43' E 122°21'1211.6
2015-Jan-21 05:33N 29°50' E 122°11'10 9.0
2015-Jan-21 04:27N 29°46' E 122°00'0 0.0
2015-Jan-21 03:28N 29°46' E 122°00'0 0.0
2015-Jan-21 02:10N 29°46' E 122°00'0 0.0
2015-Jan-20 22:10N 29°46' E 122°00'  
Track history (hours):
 
Tides and Currents Weather Stations Pressure Air Temp Water Temp Dewpoint Dewpoint Depression Visibility Wind Speed Wind Dir Waves Ship Positions

Tubul

Last reported at 2015-Jan-30 21:31 UTC. Time now 2015-Jan-30 21:40 UTC.
Position N 01°13' E 103°41'.

Length 300 m; draft 12.3 m.

Type: Ship. MMSI: 636014647.

Date/timePositionNaut miles runAvg speedWind from/ knotsBaromVisibWave heightAir tempDewpointWater temp
2015-Jan-30 21:31N 01°13' E 103°41'6 6.6
2015-Jan-30 20:33N 01°16' E 103°47'0 0.0
2015-Jan-30 19:33N 01°16' E 103°47'0 0.0
2015-Jan-30 18:33N 01°16' E 103°47'0 0.0
2015-Jan-30 17:33N 01°16' E 103°47'0 0.0
2015-Jan-30 16:33N 01°16' E 103°47'0 0.0
2015-Jan-30 15:33N 01°16' E 103°47'0 0.0
2015-Jan-30 14:33N 01°16' E 103°47'0 0.0
2015-Jan-30 13:33N 01°16' E 103°47'0 0.0
2015-Jan-30 12:33N 01°16' E 103°47'0 0.0
2015-Jan-30 11:33N 01°16' E 103°47'0 0.0
2015-Jan-30 10:33N 01°16' E 103°47'0 0.0
2015-Jan-30 09:14N 01°16' E 103°47'0 0.4
2015-Jan-30 08:34N 01°16' E 103°47'6 5.6
2015-Jan-30 07:30N 01°13' E 103°52'7 7.2
2015-Jan-30 06:33N 01°15' E 103°58'1313.1
2015-Jan-30 05:33N 01°17' E 104°11'  
2015-Jan-25 11:33N 22°01' E 114°23'1110.2
2015-Jan-25 10:30N 22°08' E 114°13'1110.9
2015-Jan-25 09:31N 22°16' E 114°06'4 3.3
2015-Jan-25 08:23N 22°20' E 114°07'0 0.0
2015-Jan-25 07:23N 22°20' E 114°07'0 0.0
2015-Jan-25 06:32N 22°20' E 114°07'0 0.0
2015-Jan-25 05:32N 22°20' E 114°07'0 0.0
2015-Jan-25 04:23N 22°20' E 114°07'0 0.0
2015-Jan-25 03:29N 22°20' E 114°07'0 0.0
2015-Jan-25 02:32N 22°20' E 114°07'0 0.0
2015-Jan-25 01:32N 22°20' E 114°07'0 0.0
2015-Jan-25 00:29N 22°20' E 114°07'0 0.0
2015-Jan-24 23:32N 22°20' E 114°07'0 0.0
2015-Jan-24 22:26N 22°20' E 114°07'0 0.0
2015-Jan-24 21:32N 22°20' E 114°07'0 0.0
2015-Jan-24 20:32N 22°20' E 114°07'0 0.0
2015-Jan-24 19:29N 22°20' E 114°07'0 0.0
2015-Jan-24 18:33N 22°20' E 114°07'8 7.7
2015-Jan-24 17:33N 22°13' E 114°10'8 6.9
2015-Jan-24 16:26N 22°09' E 114°17'910.5
2015-Jan-24 15:32N 22°15' E 114°25'20 8.5
2015-Jan-24 13:08N 22°34' E 114°17'1 1.5
2015-Jan-24 12:31N 22°34' E 114°16'0 0.0
2015-Jan-24 00:29N 22°34' E 114°16'1 1.0
2015-Jan-23 23:33N 22°34' E 114°17'13110.0
2015-Jan-23 10:29N 22°42' E 116°39'1211.0
2015-Jan-23 09:23N 22°50' E 116°49'7 8.2
2015-Jan-23 08:33N 22°55' E 116°44'15710.1
2015-Jan-22 17:03N 24°22' E 119°07'34410.9
2015-Jan-21 09:26N 29°12' E 122°33'2512.1
2015-Jan-21 07:21N 29°37' E 122°31'1013.0
2015-Jan-21 06:33N 29°43' E 122°21'1211.6
2015-Jan-21 05:33N 29°50' E 122°11'10 9.0
2015-Jan-21 04:27N 29°46' E 122°00'0 0.0
2015-Jan-21 03:28N 29°46' E 122°00'0 0.0
2015-Jan-21 02:10N 29°46' E 122°00'0 0.0
2015-Jan-20 22:10N 29°46' E 122°00'  

Dump ship's entire track history